Father Pat — WDG2791 — position and weather

sailwx.info

Track history (hours):
 
Tides and Currents Weather Stations Pressure Air Temp Water Temp Dewpoint Dewpoint Depression Visibility Wind Speed Wind Dir Waves Ship Positions

Father Pat

Owner: Marquette Transportation Company Gulf-Inland, LLC, Jefferson, LA. More information available from US FCC via Universal Licensing System and Coast Guard Vessel Documentation Center.

Last reported at 2018-Feb-13 19:20 UTC. Time now 2018-Feb-20 17:59 UTC.
Position N 32°08' W 091°06'.

Length 24 m; draft 2.9 m.

Type: Towing. MMSI: 367519320.

Date/timePositionNaut miles runAvg speedWind from/ knotsBaromVisibWave heightAir tempDewpointWater temp
2018-Feb-13 19:20N 32°08' W 091°06'3 8.5
2018-Feb-13 18:57N 32°07' W 091°02'4 8.0
2018-Feb-13 18:30N 32°10' W 091°00'4 9.0
2018-Feb-13 18:00N 32°15' W 090°59'4 8.5
2018-Feb-13 17:30N 32°18' W 090°55'3 5.7
2018-Feb-13 17:00N 32°21' W 090°55'4 7.6
2018-Feb-13 16:30N 32°21' W 090°60'4 7.4
2018-Feb-13 16:00N 32°25' W 090°60'4 8.4
2018-Feb-13 15:30N 32°27' W 091°04'4 7.8
2018-Feb-13 15:00N 32°30' W 091°07'4 8.3
2018-Feb-13 14:31N 32°34' W 091°06'4 8.3
2018-Feb-13 14:00N 32°37' W 091°09'  
Track history (hours):
 
Tides and Currents Weather Stations Pressure Air Temp Water Temp Dewpoint Dewpoint Depression Visibility Wind Speed Wind Dir Waves Ship Positions

Father Pat

Owner: Marquette Transportation Company Gulf-Inland, LLC, Jefferson, LA. More information available from US FCC via Universal Licensing System and Coast Guard Vessel Documentation Center.

Last reported at 2018-Feb-13 19:20 UTC. Time now 2018-Feb-20 17:59 UTC.
Position N 32°08' W 091°06'.

Length 24 m; draft 2.9 m.

Type: Towing. MMSI: 367519320.

Date/timePositionNaut miles runAvg speedWind from/ knotsBaromVisibWave heightAir tempDewpointWater temp
2018-Feb-13 19:20N 32°08' W 091°06'3 8.5
2018-Feb-13 18:57N 32°07' W 091°02'4 8.0
2018-Feb-13 18:30N 32°10' W 091°00'4 9.0
2018-Feb-13 18:00N 32°15' W 090°59'4 8.5
2018-Feb-13 17:30N 32°18' W 090°55'3 5.7
2018-Feb-13 17:00N 32°21' W 090°55'4 7.6
2018-Feb-13 16:30N 32°21' W 090°60'4 7.4
2018-Feb-13 16:00N 32°25' W 090°60'4 8.4
2018-Feb-13 15:30N 32°27' W 091°04'4 7.8
2018-Feb-13 15:00N 32°30' W 091°07'4 8.3
2018-Feb-13 14:31N 32°34' W 091°06'4 8.3
2018-Feb-13 14:00N 32°37' W 091°09'  

Dump ship's entire track history